sensor_id;sensor_type;location;lat;lon;timestamp;P1;durP1;ratioP1;P2;durP2;ratioP2
18867;SDS011;9563;49.240;9.088;2023-06-05T05:01:25;2.85;;;1.30;;
18867;SDS011;9563;49.240;9.088;2023-06-05T05:03:52;3.60;;;1.10;;
18867;SDS011;9563;49.240;9.088;2023-06-05T05:06:19;7.30;;;1.30;;
18867;SDS011;9563;49.240;9.088;2023-06-05T05:08:46;3.15;;;1.30;;
18867;SDS011;9563;49.240;9.088;2023-06-05T05:11:14;2.80;;;1.25;;
18867;SDS011;9563;49.240;9.088;2023-06-05T05:13:41;1.67;;;1.17;;
18867;SDS011;9563;49.240;9.088;2023-06-05T05:16:08;1.88;;;1.30;;
18867;SDS011;9563;49.240;9.088;2023-06-05T05:18:37;4.28;;;1.30;;
18867;SDS011;9563;49.240;9.088;2023-06-05T05:21:05;5.47;;;1.42;;
18867;SDS011;9563;49.240;9.088;2023-06-05T05:23:32;2.42;;;1.40;;
18867;SDS011;9563;49.240;9.088;2023-06-05T05:25:59;2.55;;;1.35;;
18867;SDS011;9563;49.240;9.088;2023-06-05T05:28:26;1.70;;;1.30;;
18867;SDS011;9563;49.240;9.088;2023-06-05T05:30:53;5.07;;;1.33;;
18867;SDS011;9563;49.240;9.088;2023-06-05T05:33:22;1.63;;;1.23;;
18867;SDS011;9563;49.240;9.088;2023-06-05T05:35:50;2.33;;;1.30;;
18867;SDS011;9563;49.240;9.088;2023-06-05T05:38:17;3.15;;;1.30;;
18867;SDS011;9563;49.240;9.088;2023-06-05T05:40:44;3.00;;;1.40;;
18867;SDS011;9563;49.240;9.088;2023-06-05T05:43:10;2.22;;;1.33;;
18867;SDS011;9563;49.240;9.088;2023-06-05T05:45:37;2.15;;;1.10;;
18867;SDS011;9563;49.240;9.088;2023-06-05T05:48:05;1.98;;;1.33;;
18867;SDS011;9563;49.240;9.088;2023-06-05T05:50:33;2.50;;;1.30;;
18867;SDS011;9563;49.240;9.088;2023-06-05T05:53:01;2.13;;;1.23;;
18867;SDS011;9563;49.240;9.088;2023-06-05T05:55:28;3.55;;;1.30;;
18867;SDS011;9563;49.240;9.088;2023-06-05T05:57:55;4.45;;;1.58;;
18867;SDS011;9563;49.240;9.088;2023-06-05T06:00:22;5.65;;;1.20;;
18867;SDS011;9563;49.240;9.088;2023-06-05T06:02:49;2.58;;;1.40;;
18867;SDS011;9563;49.240;9.088;2023-06-05T06:05:16;3.58;;;1.38;;
18867;SDS011;9563;49.240;9.088;2023-06-05T06:07:43;2.45;;;1.60;;
18867;SDS011;9563;49.240;9.088;2023-06-05T06:10:11;3.53;;;1.60;;
18867;SDS011;9563;49.240;9.088;2023-06-05T06:12:38;4.93;;;1.42;;
18867;SDS011;9563;49.240;9.088;2023-06-05T06:15:06;3.97;;;1.50;;
18867;SDS011;9563;49.240;9.088;2023-06-05T06:17:34;2.78;;;1.35;;
18867;SDS011;9563;49.240;9.088;2023-06-05T06:20:01;3.85;;;1.52;;
18867;SDS011;9563;49.240;9.088;2023-06-05T06:22:29;1.75;;;1.20;;
18867;SDS011;9563;49.240;9.088;2023-06-05T06:24:56;3.20;;;1.20;;
18867;SDS011;9563;49.240;9.088;2023-06-05T06:27:24;5.60;;;1.55;;
18867;SDS011;9563;49.240;9.088;2023-06-05T06:29:51;3.08;;;1.48;;
18867;SDS011;9563;49.240;9.088;2023-06-05T06:32:18;4.35;;;1.40;;
18867;SDS011;9563;49.240;9.088;2023-06-05T06:34:45;2.40;;;1.17;;
18867;SDS011;9563;49.240;9.088;2023-06-05T06:37:12;3.75;;;1.60;;
18867;SDS011;9563;49.240;9.088;2023-06-05T06:39:40;4.70;;;1.48;;
18867;SDS011;9563;49.240;9.088;2023-06-05T06:42:07;2.00;;;1.25;;
18867;SDS011;9563;49.240;9.088;2023-06-05T06:44:36;2.78;;;1.40;;
18867;SDS011;9563;49.240;9.088;2023-06-05T06:47:03;1.52;;;1.35;;
18867;SDS011;9563;49.240;9.088;2023-06-05T06:49:30;4.18;;;1.60;;
18867;SDS011;9563;49.240;9.088;2023-06-05T06:51:57;5.53;;;1.70;;
18867;SDS011;9563;49.240;9.088;2023-06-05T06:54:23;2.97;;;1.60;;
18867;SDS011;9563;49.240;9.088;2023-06-05T06:56:51;2.85;;;1.38;;
18867;SDS011;9563;49.240;9.088;2023-06-05T06:59:18;3.50;;;1.52;;
18867;SDS011;9563;49.240;9.088;2023-06-05T07:01:47;4.00;;;1.80;;
18867;SDS011;9563;49.240;9.088;2023-06-05T07:04:33;4.85;;;1.90;;
18867;SDS011;9563;49.240;9.088;2023-06-05T07:07:00;5.53;;;1.65;;
18867;SDS011;9563;49.240;9.088;2023-06-05T07:09:27;3.78;;;1.50;;
18867;SDS011;9563;49.240;9.088;2023-06-05T07:11:54;3.05;;;1.60;;
18867;SDS011;9563;49.240;9.088;2023-06-05T07:14:21;2.28;;;1.20;;
18867;SDS011;9563;49.240;9.088;2023-06-05T07:16:50;3.60;;;1.27;;
18867;SDS011;9563;49.240;9.088;2023-06-05T07:19:21;5.35;;;1.90;;
18867;SDS011;9563;49.240;9.088;2023-06-05T07:21:47;5.45;;;1.60;;
18867;SDS011;9563;49.240;9.088;2023-06-05T07:24:14;2.40;;;1.40;;
18867;SDS011;9563;49.240;9.088;2023-06-05T07:26:43;2.80;;;1.58;;
18867;SDS011;9563;49.240;9.088;2023-06-05T07:29:10;3.15;;;1.40;;
18867;SDS011;9563;49.240;9.088;2023-06-05T07:31:37;2.10;;;1.60;;
18867;SDS011;9563;49.240;9.088;2023-06-05T07:34:05;2.15;;;1.40;;
18867;SDS011;9563;49.240;9.088;2023-06-05T07:36:32;2.38;;;1.50;;
18867;SDS011;9563;49.240;9.088;2023-06-05T07:38:59;2.47;;;1.58;;
18867;SDS011;9563;49.240;9.088;2023-06-05T07:41:26;2.88;;;1.63;;
18867;SDS011;9563;49.240;9.088;2023-06-05T07:43:53;4.55;;;1.83;;
18867;SDS011;9563;49.240;9.088;2023-06-05T07:46:20;2.85;;;1.58;;
18867;SDS011;9563;49.240;9.088;2023-06-05T07:48:46;2.25;;;1.58;;
18867;SDS011;9563;49.240;9.088;2023-06-05T07:51:14;7.60;;;1.85;;
18867;SDS011;9563;49.240;9.088;2023-06-05T07:53:43;2.40;;;1.45;;
18867;SDS011;9563;49.240;9.088;2023-06-05T07:56:10;3.65;;;1.60;;
18867;SDS011;9563;49.240;9.088;2023-06-05T07:58:37;4.70;;;1.65;;
18867;SDS011;9563;49.240;9.088;2023-06-05T08:01:04;4.15;;;1.58;;
18867;SDS011;9563;49.240;9.088;2023-06-05T08:03:32;3.38;;;1.38;;
18867;SDS011;9563;49.240;9.088;2023-06-05T08:05:58;9.75;;;1.95;;
18867;SDS011;9563;49.240;9.088;2023-06-05T08:08:28;3.00;;;1.73;;
18867;SDS011;9563;49.240;9.088;2023-06-05T08:10:56;6.85;;;2.05;;
18867;SDS011;9563;49.240;9.088;2023-06-05T08:13:22;3.30;;;1.48;;
18867;SDS011;9563;49.240;9.088;2023-06-05T08:15:49;5.38;;;1.80;;
18867;SDS011;9563;49.240;9.088;2023-06-05T08:18:16;6.45;;;2.10;;
18867;SDS011;9563;49.240;9.088;2023-06-05T08:20:43;4.53;;;2.30;;
18867;SDS011;9563;49.240;9.088;2023-06-05T08:23:10;4.18;;;1.85;;
18867;SDS011;9563;49.240;9.088;2023-06-05T08:25:38;4.88;;;1.85;;
18867;SDS011;9563;49.240;9.088;2023-06-05T08:28:05;6.68;;;2.17;;
18867;SDS011;9563;49.240;9.088;2023-06-05T08:30:32;3.53;;;1.70;;
18867;SDS011;9563;49.240;9.088;2023-06-05T08:32:59;3.33;;;1.70;;
18867;SDS011;9563;49.240;9.088;2023-06-05T08:35:26;5.97;;;2.17;;
18867;SDS011;9563;49.240;9.088;2023-06-05T08:37:53;3.53;;;1.88;;
18867;SDS011;9563;49.240;9.088;2023-06-05T08:40:19;2.92;;;1.92;;
18867;SDS011;9563;49.240;9.088;2023-06-05T08:42:48;3.58;;;2.15;;
18867;SDS011;9563;49.240;9.088;2023-06-05T08:45:15;3.42;;;1.88;;
18867;SDS011;9563;49.240;9.088;2023-06-05T08:47:42;4.28;;;2.33;;
18867;SDS011;9563;49.240;9.088;2023-06-05T08:50:13;8.05;;;2.53;;
18867;SDS011;9563;49.240;9.088;2023-06-05T08:52:42;4.18;;;2.03;;
18867;SDS011;9563;49.240;9.088;2023-06-05T08:55:11;4.80;;;2.15;;
18867;SDS011;9563;49.240;9.088;2023-06-05T08:57:38;5.40;;;2.50;;
18867;SDS011;9563;49.240;9.088;2023-06-05T09:00:09;6.47;;;2.08;;
18867;SDS011;9563;49.240;9.088;2023-06-05T09:02:37;4.18;;;2.35;;
18867;SDS011;9563;49.240;9.088;2023-06-05T09:05:08;9.15;;;2.40;;
18867;SDS011;9563;49.240;9.088;2023-06-05T09:07:35;3.88;;;2.05;;
18867;SDS011;9563;49.240;9.088;2023-06-05T09:10:02;6.03;;;2.30;;
18867;SDS011;9563;49.240;9.088;2023-06-05T09:12:30;4.50;;;2.30;;
18867;SDS011;9563;49.240;9.088;2023-06-05T09:14:57;4.45;;;2.58;;
18867;SDS011;9563;49.240;9.088;2023-06-05T09:17:25;5.38;;;2.40;;
18867;SDS011;9563;49.240;9.088;2023-06-05T09:19:51;5.97;;;2.30;;
18867;SDS011;9563;49.240;9.088;2023-06-05T09:22:31;8.20;;;2.20;;
18867;SDS011;9563;49.240;9.088;2023-06-05T09:24:59;3.47;;;2.25;;
18867;SDS011;9563;49.240;9.088;2023-06-05T09:27:27;4.57;;;2.35;;
18867;SDS011;9563;49.240;9.088;2023-06-05T09:30:00;8.82;;;2.72;;
18867;SDS011;9563;49.240;9.088;2023-06-05T09:32:30;7.50;;;2.65;;
18867;SDS011;9563;49.240;9.088;2023-06-05T09:34:57;6.00;;;2.88;;
18867;SDS011;9563;49.240;9.088;2023-06-05T09:37:32;6.32;;;2.80;;
18867;SDS011;9563;49.240;9.088;2023-06-05T09:40:00;7.65;;;2.83;;
18867;SDS011;9563;49.240;9.088;2023-06-05T09:42:30;8.00;;;2.97;;
18867;SDS011;9563;49.240;9.088;2023-06-05T09:44:58;7.70;;;2.50;;
18867;SDS011;9563;49.240;9.088;2023-06-05T09:47:26;4.88;;;2.67;;
18867;SDS011;9563;49.240;9.088;2023-06-05T09:49:54;6.30;;;3.00;;
18867;SDS011;9563;49.240;9.088;2023-06-05T09:52:21;6.03;;;2.20;;
18867;SDS011;9563;49.240;9.088;2023-06-05T09:54:47;3.75;;;2.50;;
18867;SDS011;9563;49.240;9.088;2023-06-05T09:57:15;7.13;;;2.65;;
18867;SDS011;9563;49.240;9.088;2023-06-05T09:59:44;4.32;;;2.47;;
18867;SDS011;9563;49.240;9.088;2023-06-05T10:02:16;5.15;;;2.40;;
18867;SDS011;9563;49.240;9.088;2023-06-05T10:04:48;6.25;;;2.42;;
18867;SDS011;9563;49.240;9.088;2023-06-05T10:07:21;2.67;;;2.30;;
18867;SDS011;9563;49.240;9.088;2023-06-05T10:09:50;3.92;;;2.05;;
18867;SDS011;9563;49.240;9.088;2023-06-05T10:12:16;7.38;;;2.60;;
18867;SDS011;9563;49.240;9.088;2023-06-05T10:14:44;3.60;;;2.30;;
18867;SDS011;9563;49.240;9.088;2023-06-05T10:17:11;5.53;;;2.15;;
18867;SDS011;9563;49.240;9.088;2023-06-05T10:19:40;10.68;;;2.42;;
18867;SDS011;9563;49.240;9.088;2023-06-05T10:22:09;3.70;;;2.10;;
18867;SDS011;9563;49.240;9.088;2023-06-05T10:24:38;2.20;;;1.80;;
18867;SDS011;9563;49.240;9.088;2023-06-05T10:27:15;3.15;;;2.00;;
18867;SDS011;9563;49.240;9.088;2023-06-05T10:30:12;5.60;;;2.38;;
18867;SDS011;9563;49.240;9.088;2023-06-05T10:33:11;4.82;;;2.20;;
18867;SDS011;9563;49.240;9.088;2023-06-05T10:35:53;2.22;;;1.85;;
18867;SDS011;9563;49.240;9.088;2023-06-05T10:38:27;4.18;;;2.03;;
18867;SDS011;9563;49.240;9.088;2023-06-05T10:40:57;3.45;;;2.10;;
18867;SDS011;9563;49.240;9.088;2023-06-05T10:43:29;3.03;;;2.25;;
18867;SDS011;9563;49.240;9.088;2023-06-05T10:45:57;7.32;;;2.10;;
18867;SDS011;9563;49.240;9.088;2023-06-05T10:51:33;3.35;;;2.03;;
18867;SDS011;9563;49.240;9.088;2023-06-05T10:54:03;5.40;;;2.28;;
18867;SDS011;9563;49.240;9.088;2023-06-05T10:59:26;5.00;;;2.30;;
18867;SDS011;9563;49.240;9.088;2023-06-05T11:05:05;7.20;;;1.92;;
18867;SDS011;9563;49.240;9.088;2023-06-05T11:07:35;6.93;;;2.47;;
18867;SDS011;9563;49.240;9.088;2023-06-05T11:10:06;6.88;;;2.00;;
18867;SDS011;9563;49.240;9.088;2023-06-05T11:15:35;4.80;;;2.00;;
18867;SDS011;9563;49.240;9.088;2023-06-05T11:20:52;5.95;;;2.47;;
18867;SDS011;9563;49.240;9.088;2023-06-05T11:23:20;3.75;;;2.28;;
18867;SDS011;9563;49.240;9.088;2023-06-05T11:25:52;6.80;;;2.65;;
18867;SDS011;9563;49.240;9.088;2023-06-05T11:28:38;5.72;;;1.90;;
18867;SDS011;9563;49.240;9.088;2023-06-05T11:31:06;3.70;;;2.40;;
18867;SDS011;9563;49.240;9.088;2023-06-05T11:33:33;3.33;;;1.95;;
18867;SDS011;9563;49.240;9.088;2023-06-05T11:36:00;5.93;;;2.00;;
18867;SDS011;9563;49.240;9.088;2023-06-05T11:38:32;4.50;;;2.20;;
18867;SDS011;9563;49.240;9.088;2023-06-05T11:40:59;2.63;;;2.00;;
18867;SDS011;9563;49.240;9.088;2023-06-05T11:43:31;6.05;;;2.28;;
18867;SDS011;9563;49.240;9.088;2023-06-05T11:46:00;8.07;;;2.30;;
18867;SDS011;9563;49.240;9.088;2023-06-05T11:48:26;2.70;;;1.60;;
18867;SDS011;9563;49.240;9.088;2023-06-05T11:50:56;2.55;;;1.75;;
18867;SDS011;9563;49.240;9.088;2023-06-05T11:53:24;4.82;;;1.92;;
18867;SDS011;9563;49.240;9.088;2023-06-05T11:55:52;4.07;;;2.00;;
18867;SDS011;9563;49.240;9.088;2023-06-05T11:58:32;3.95;;;2.20;;
18867;SDS011;9563;49.240;9.088;2023-06-05T12:01:05;3.03;;;2.00;;
18867;SDS011;9563;49.240;9.088;2023-06-05T12:03:34;3.60;;;2.08;;
18867;SDS011;9563;49.240;9.088;2023-06-05T12:06:02;2.97;;;2.25;;
18867;SDS011;9563;49.240;9.088;2023-06-05T12:08:29;2.20;;;1.80;;
18867;SDS011;9563;49.240;9.088;2023-06-05T12:10:58;3.13;;;2.20;;
18867;SDS011;9563;49.240;9.088;2023-06-05T12:13:45;5.30;;;2.30;;
18867;SDS011;9563;49.240;9.088;2023-06-05T12:16:14;3.45;;;2.03;;
18867;SDS011;9563;49.240;9.088;2023-06-05T12:18:42;3.00;;;2.10;;
18867;SDS011;9563;49.240;9.088;2023-06-05T12:21:19;5.32;;;2.60;;
18867;SDS011;9563;49.240;9.088;2023-06-05T12:23:47;2.10;;;1.80;;
18867;SDS011;9563;49.240;9.088;2023-06-05T12:26:14;2.83;;;2.17;;
18867;SDS011;9563;49.240;9.088;2023-06-05T12:28:42;2.40;;;1.73;;
18867;SDS011;9563;49.240;9.088;2023-06-05T12:31:10;5.80;;;2.10;;
18867;SDS011;9563;49.240;9.088;2023-06-05T12:33:47;3.90;;;1.83;;
18867;SDS011;9563;49.240;9.088;2023-06-05T12:36:14;3.72;;;2.30;;
18867;SDS011;9563;49.240;9.088;2023-06-05T12:38:42;3.15;;;1.90;;
18867;SDS011;9563;49.240;9.088;2023-06-05T12:41:10;2.17;;;1.70;;
18867;SDS011;9563;49.240;9.088;2023-06-05T12:43:37;4.15;;;1.80;;
18867;SDS011;9563;49.240;9.088;2023-06-05T12:46:04;4.28;;;2.10;;
18867;SDS011;9563;49.240;9.088;2023-06-05T12:48:32;2.70;;;1.95;;
18867;SDS011;9563;49.240;9.088;2023-06-05T12:51:01;2.97;;;2.17;;
18867;SDS011;9563;49.240;9.088;2023-06-05T12:53:28;4.15;;;2.00;;
18867;SDS011;9563;49.240;9.088;2023-06-05T12:55:56;3.40;;;1.95;;
18867;SDS011;9563;49.240;9.088;2023-06-05T12:58:23;6.18;;;2.00;;
18867;SDS011;9563;49.240;9.088;2023-06-05T13:00:50;4.38;;;1.85;;
18867;SDS011;9563;49.240;9.088;2023-06-05T13:03:19;7.50;;;2.20;;
18867;SDS011;9563;49.240;9.088;2023-06-05T13:05:45;3.00;;;1.98;;
18867;SDS011;9563;49.240;9.088;2023-06-05T13:08:14;3.17;;;2.13;;
18867;SDS011;9563;49.240;9.088;2023-06-05T13:10:41;3.58;;;2.03;;
18867;SDS011;9563;49.240;9.088;2023-06-05T13:13:08;3.10;;;2.03;;
18867;SDS011;9563;49.240;9.088;2023-06-05T13:15:34;3.45;;;2.10;;
18867;SDS011;9563;49.240;9.088;2023-06-05T13:18:01;7.25;;;2.08;;
18867;SDS011;9563;49.240;9.088;2023-06-05T13:20:28;3.78;;;1.77;;
18867;SDS011;9563;49.240;9.088;2023-06-05T13:22:55;3.20;;;1.83;;
18867;SDS011;9563;49.240;9.088;2023-06-05T13:25:23;5.28;;;2.08;;
18867;SDS011;9563;49.240;9.088;2023-06-05T13:27:50;3.33;;;2.00;;
18867;SDS011;9563;49.240;9.088;2023-06-05T13:30:17;1.95;;;1.60;;
18867;SDS011;9563;49.240;9.088;2023-06-05T13:32:44;6.35;;;1.80;;
18867;SDS011;9563;49.240;9.088;2023-06-05T13:35:11;5.55;;;2.20;;
18867;SDS011;9563;49.240;9.088;2023-06-05T13:37:38;4.28;;;1.90;;
18867;SDS011;9563;49.240;9.088;2023-06-05T13:40:06;2.25;;;1.70;;
18867;SDS011;9563;49.240;9.088;2023-06-05T13:42:37;3.55;;;1.70;;
18867;SDS011;9563;49.240;9.088;2023-06-05T13:45:04;7.55;;;1.80;;
18867;SDS011;9563;49.240;9.088;2023-06-05T13:47:32;3.67;;;1.90;;
18867;SDS011;9563;49.240;9.088;2023-06-05T13:49:59;4.75;;;2.05;;
18867;SDS011;9563;49.240;9.088;2023-06-05T13:52:25;3.75;;;1.80;;
18867;SDS011;9563;49.240;9.088;2023-06-05T13:54:52;2.60;;;1.80;;
18867;SDS011;9563;49.240;9.088;2023-06-05T13:57:19;3.25;;;2.03;;
18867;SDS011;9563;49.240;9.088;2023-06-05T13:59:47;7.00;;;1.98;;
18867;SDS011;9563;49.240;9.088;2023-06-05T14:02:14;3.53;;;1.95;;
18867;SDS011;9563;49.240;9.088;2023-06-05T14:04:41;4.15;;;1.75;;
18867;SDS011;9563;49.240;9.088;2023-06-05T14:07:08;3.83;;;1.92;;
18867;SDS011;9563;49.240;9.088;2023-06-05T14:09:36;5.22;;;2.03;;
18867;SDS011;9563;49.240;9.088;2023-06-05T14:12:02;2.75;;;1.98;;
18867;SDS011;9563;49.240;9.088;2023-06-05T14:14:30;3.55;;;1.80;;
18867;SDS011;9563;49.240;9.088;2023-06-05T14:16:58;4.05;;;2.17;;
18867;SDS011;9563;49.240;9.088;2023-06-05T14:19:25;2.97;;;1.95;;
18867;SDS011;9563;49.240;9.088;2023-06-05T14:21:52;4.10;;;1.90;;
18867;SDS011;9563;49.240;9.088;2023-06-05T14:24:19;1.85;;;1.63;;
18867;SDS011;9563;49.240;9.088;2023-06-05T14:26:46;2.28;;;1.70;;
18867;SDS011;9563;49.240;9.088;2023-06-05T14:29:13;3.35;;;1.90;;
18867;SDS011;9563;49.240;9.088;2023-06-05T14:31:40;2.15;;;1.70;;
18867;SDS011;9563;49.240;9.088;2023-06-05T14:34:09;3.97;;;1.92;;
18867;SDS011;9563;49.240;9.088;2023-06-05T14:36:35;4.18;;;2.20;;
18867;SDS011;9563;49.240;9.088;2023-06-05T14:39:02;4.47;;;2.28;;
18867;SDS011;9563;49.240;9.088;2023-06-05T14:41:29;4.30;;;2.22;;
18867;SDS011;9563;49.240;9.088;2023-06-05T14:43:56;3.25;;;1.90;;
18867;SDS011;9563;49.240;9.088;2023-06-05T14:46:23;5.32;;;2.10;;
18867;SDS011;9563;49.240;9.088;2023-06-05T14:48:50;4.40;;;2.05;;
18867;SDS011;9563;49.240;9.088;2023-06-05T14:51:18;5.80;;;1.98;;
18867;SDS011;9563;49.240;9.088;2023-06-05T14:53:45;3.70;;;2.30;;
18867;SDS011;9563;49.240;9.088;2023-06-05T14:56:12;3.58;;;2.08;;
18867;SDS011;9563;49.240;9.088;2023-06-05T14:58:39;3.40;;;2.05;;
18867;SDS011;9563;49.240;9.088;2023-06-05T15:01:06;5.63;;;1.90;;
18867;SDS011;9563;49.240;9.088;2023-06-05T15:03:33;2.63;;;2.03;;
18867;SDS011;9563;49.240;9.088;2023-06-05T15:06:00;4.22;;;2.30;;
18867;SDS011;9563;49.240;9.088;2023-06-05T15:08:28;3.08;;;2.03;;
18867;SDS011;9563;49.240;9.088;2023-06-05T15:10:55;3.20;;;2.10;;
18867;SDS011;9563;49.240;9.088;2023-06-05T15:13:22;4.25;;;2.25;;
18867;SDS011;9563;49.240;9.088;2023-06-05T15:15:49;3.67;;;2.03;;
18867;SDS011;9563;49.240;9.088;2023-06-05T15:18:17;5.57;;;1.80;;
18867;SDS011;9563;49.240;9.088;2023-06-05T15:20:43;8.60;;;2.10;;
18867;SDS011;9563;49.240;9.088;2023-06-05T15:23:10;3.50;;;1.95;;
18867;SDS011;9563;49.240;9.088;2023-06-05T15:25:38;3.13;;;2.03;;
18867;SDS011;9563;49.240;9.088;2023-06-05T15:28:05;4.32;;;1.85;;
18867;SDS011;9563;49.240;9.088;2023-06-05T15:30:32;4.18;;;2.15;;
18867;SDS011;9563;49.240;9.088;2023-06-05T15:32:59;4.38;;;2.10;;
18867;SDS011;9563;49.240;9.088;2023-06-05T15:35:27;4.55;;;1.88;;
18867;SDS011;9563;49.240;9.088;2023-06-05T15:37:54;4.35;;;1.88;;
18867;SDS011;9563;49.240;9.088;2023-06-05T15:40:21;2.63;;;1.85;;
18867;SDS011;9563;49.240;9.088;2023-06-05T15:43:03;4.97;;;1.95;;
18867;SDS011;9563;49.240;9.088;2023-06-05T15:45:31;2.92;;;2.22;;
18867;SDS011;9563;49.240;9.088;2023-06-05T15:47:58;5.65;;;2.15;;
18867;SDS011;9563;49.240;9.088;2023-06-05T15:50:25;2.88;;;1.90;;
18867;SDS011;9563;49.240;9.088;2023-06-05T15:52:52;3.90;;;2.00;;
18867;SDS011;9563;49.240;9.088;2023-06-05T15:55:19;3.22;;;1.92;;
18867;SDS011;9563;49.240;9.088;2023-06-05T15:57:46;3.08;;;1.83;;
18867;SDS011;9563;49.240;9.088;2023-06-05T16:00:15;3.30;;;2.20;;
18867;SDS011;9563;49.240;9.088;2023-06-05T16:02:43;4.95;;;2.10;;
18867;SDS011;9563;49.240;9.088;2023-06-05T16:05:10;7.05;;;2.25;;
18867;SDS011;9563;49.240;9.088;2023-06-05T16:07:37;4.95;;;2.28;;
18867;SDS011;9563;49.240;9.088;2023-06-05T16:10:05;4.47;;;2.20;;
18867;SDS011;9563;49.240;9.088;2023-06-05T16:12:32;4.97;;;2.15;;
18867;SDS011;9563;49.240;9.088;2023-06-05T16:14:59;3.28;;;1.92;;
18867;SDS011;9563;49.240;9.088;2023-06-05T16:17:27;6.05;;;2.03;;
18867;SDS011;9563;49.240;9.088;2023-06-05T16:19:55;7.30;;;2.28;;
18867;SDS011;9563;49.240;9.088;2023-06-05T16:22:22;4.82;;;1.95;;
18867;SDS011;9563;49.240;9.088;2023-06-05T16:24:49;5.40;;;1.75;;
18867;SDS011;9563;49.240;9.088;2023-06-05T16:27:16;4.03;;;2.53;;
18867;SDS011;9563;49.240;9.088;2023-06-05T16:29:44;5.45;;;2.00;;
18867;SDS011;9563;49.240;9.088;2023-06-05T16:32:11;4.07;;;2.35;;
18867;SDS011;9563;49.240;9.088;2023-06-05T16:34:39;2.70;;;2.05;;
18867;SDS011;9563;49.240;9.088;2023-06-05T16:37:06;3.45;;;2.03;;
18867;SDS011;9563;49.240;9.088;2023-06-05T16:39:33;3.90;;;2.20;;
18867;SDS011;9563;49.240;9.088;2023-06-05T16:42:01;5.80;;;2.00;;
18867;SDS011;9563;49.240;9.088;2023-06-05T16:44:29;5.35;;;2.17;;
18867;SDS011;9563;49.240;9.088;2023-06-05T16:46:56;3.35;;;1.98;;
18867;SDS011;9563;49.240;9.088;2023-06-05T16:49:24;4.15;;;2.30;;
18867;SDS011;9563;49.240;9.088;2023-06-05T16:51:52;5.05;;;2.25;;
18867;SDS011;9563;49.240;9.088;2023-06-05T16:54:19;4.85;;;2.25;;
18867;SDS011;9563;49.240;9.088;2023-06-05T16:56:47;2.17;;;1.60;;
18867;SDS011;9563;49.240;9.088;2023-06-05T16:59:15;7.47;;;2.20;;
18867;SDS011;9563;49.240;9.088;2023-06-05T17:01:42;3.83;;;2.15;;
18867;SDS011;9563;49.240;9.088;2023-06-05T17:04:10;2.75;;;1.88;;
18867;SDS011;9563;49.240;9.088;2023-06-05T17:06:37;6.78;;;2.35;;
18867;SDS011;9563;49.240;9.088;2023-06-05T17:09:05;4.32;;;2.45;;
18867;SDS011;9563;49.240;9.088;2023-06-05T17:11:32;3.47;;;2.30;;
18867;SDS011;9563;49.240;9.088;2023-06-05T17:13:59;4.57;;;2.33;;
18867;SDS011;9563;49.240;9.088;2023-06-05T17:16:26;5.10;;;2.33;;
18867;SDS011;9563;49.240;9.088;2023-06-05T17:18:52;4.03;;;2.15;;
18867;SDS011;9563;49.240;9.088;2023-06-05T17:21:19;4.00;;;2.42;;
18867;SDS011;9563;49.240;9.088;2023-06-05T17:23:46;3.95;;;2.40;;
18867;SDS011;9563;49.240;9.088;2023-06-05T17:26:15;4.57;;;2.15;;
18867;SDS011;9563;49.240;9.088;2023-06-05T17:28:42;3.15;;;2.10;;
18867;SDS011;9563;49.240;9.088;2023-06-05T17:31:09;4.75;;;2.50;;
18867;SDS011;9563;49.240;9.088;2023-06-05T17:33:36;2.70;;;1.95;;
18867;SDS011;9563;49.240;9.088;2023-06-05T17:36:05;4.57;;;2.42;;
18867;SDS011;9563;49.240;9.088;2023-06-05T17:38:31;4.30;;;2.35;;
18867;SDS011;9563;49.240;9.088;2023-06-05T17:40:58;4.88;;;1.83;;
18867;SDS011;9563;49.240;9.088;2023-06-05T17:43:26;2.55;;;2.03;;
18867;SDS011;9563;49.240;9.088;2023-06-05T17:45:53;3.95;;;1.88;;
18867;SDS011;9563;49.240;9.088;2023-06-05T17:48:20;3.40;;;2.10;;
18867;SDS011;9563;49.240;9.088;2023-06-05T17:50:47;3.67;;;2.20;;
18867;SDS011;9563;49.240;9.088;2023-06-05T17:53:14;4.82;;;2.22;;
18867;SDS011;9563;49.240;9.088;2023-06-05T17:55:46;5.80;;;2.15;;
18867;SDS011;9563;49.240;9.088;2023-06-05T17:58:13;3.30;;;1.80;;
18867;SDS011;9563;49.240;9.088;2023-06-05T18:00:42;2.40;;;2.00;;
18867;SDS011;9563;49.240;9.088;2023-06-05T18:03:09;3.03;;;1.85;;
18867;SDS011;9563;49.240;9.088;2023-06-05T18:05:36;3.15;;;1.90;;
18867;SDS011;9563;49.240;9.088;2023-06-05T18:08:03;2.92;;;1.80;;
18867;SDS011;9563;49.240;9.088;2023-06-05T18:10:30;4.20;;;2.00;;
18867;SDS011;9563;49.240;9.088;2023-06-05T18:12:57;4.38;;;1.85;;
18867;SDS011;9563;49.240;9.088;2023-06-05T18:15:24;2.95;;;1.88;;
18867;SDS011;9563;49.240;9.088;2023-06-05T18:17:52;2.75;;;1.85;;
18867;SDS011;9563;49.240;9.088;2023-06-05T18:20:19;2.80;;;2.00;;
18867;SDS011;9563;49.240;9.088;2023-06-05T18:22:46;4.63;;;2.00;;
18867;SDS011;9563;49.240;9.088;2023-06-05T18:25:15;3.17;;;2.03;;
18867;SDS011;9563;49.240;9.088;2023-06-05T18:27:42;2.75;;;2.10;;
18867;SDS011;9563;49.240;9.088;2023-06-05T18:30:09;2.38;;;1.80;;
18867;SDS011;9563;49.240;9.088;2023-06-05T18:32:36;6.40;;;1.95;;
18867;SDS011;9563;49.240;9.088;2023-06-05T18:35:06;2.83;;;1.90;;
18867;SDS011;9563;49.240;9.088;2023-06-05T18:37:34;4.10;;;1.83;;
18867;SDS011;9563;49.240;9.088;2023-06-05T18:40:03;2.35;;;1.80;;
18867;SDS011;9563;49.240;9.088;2023-06-05T18:42:31;5.80;;;2.25;;
18867;SDS011;9563;49.240;9.088;2023-06-05T18:44:57;4.07;;;2.00;;
18867;SDS011;9563;49.240;9.088;2023-06-05T18:47:24;2.93;;;1.80;;
18867;SDS011;9563;49.240;9.088;2023-06-05T18:49:51;3.75;;;1.88;;
18867;SDS011;9563;49.240;9.088;2023-06-05T18:52:19;2.78;;;1.90;;
18867;SDS011;9563;49.240;9.088;2023-06-05T18:54:46;3.45;;;1.83;;
18867;SDS011;9563;49.240;9.088;2023-06-05T18:57:13;2.45;;;1.80;;
18867;SDS011;9563;49.240;9.088;2023-06-05T18:59:41;5.40;;;1.90;;
18867;SDS011;9563;49.240;9.088;2023-06-05T19:02:08;4.80;;;2.13;;
18867;SDS011;9563;49.240;9.088;2023-06-05T19:04:35;6.35;;;1.75;;
18867;SDS011;9563;49.240;9.088;2023-06-05T19:07:01;6.30;;;1.83;;
18867;SDS011;9563;49.240;9.088;2023-06-05T19:09:30;3.22;;;1.88;;
18867;SDS011;9563;49.240;9.088;2023-06-05T19:11:57;2.05;;;1.75;;
18867;SDS011;9563;49.240;9.088;2023-06-05T19:14:24;4.45;;;1.73;;
18867;SDS011;9563;49.240;9.088;2023-06-05T19:16:51;4.10;;;2.22;;
18867;SDS011;9563;49.240;9.088;2023-06-05T19:19:18;5.45;;;2.50;;
18867;SDS011;9563;49.240;9.088;2023-06-05T19:21:45;2.78;;;1.77;;
18867;SDS011;9563;49.240;9.088;2023-06-05T19:24:12;3.55;;;2.08;;
18867;SDS011;9563;49.240;9.088;2023-06-05T19:26:41;3.92;;;1.92;;
18867;SDS011;9563;49.240;9.088;2023-06-05T19:29:09;8.27;;;2.60;;
18867;SDS011;9563;49.240;9.088;2023-06-05T19:31:36;4.80;;;2.28;;
18867;SDS011;9563;49.240;9.088;2023-06-05T19:34:03;4.90;;;1.83;;
18867;SDS011;9563;49.240;9.088;2023-06-05T19:36:30;4.47;;;2.30;;
18867;SDS011;9563;49.240;9.088;2023-06-05T19:38:58;9.32;;;2.45;;
18867;SDS011;9563;49.240;9.088;2023-06-05T19:41:24;3.42;;;2.08;;
18867;SDS011;9563;49.240;9.088;2023-06-05T19:43:53;3.40;;;2.15;;
18867;SDS011;9563;49.240;9.088;2023-06-05T19:46:20;10.20;;;2.10;;
18867;SDS011;9563;49.240;9.088;2023-06-05T19:48:47;10.98;;;2.50;;
18867;SDS011;9563;49.240;9.088;2023-06-05T19:51:15;4.55;;;2.65;;
18867;SDS011;9563;49.240;9.088;2023-06-05T19:53:42;6.22;;;2.50;;
18867;SDS011;9563;49.240;9.088;2023-06-05T19:56:08;9.07;;;2.75;;
18867;SDS011;9563;49.240;9.088;2023-06-05T19:58:35;4.75;;;2.58;;
18867;SDS011;9563;49.240;9.088;2023-06-05T20:01:03;4.10;;;2.70;;
18867;SDS011;9563;49.240;9.088;2023-06-05T20:03:30;5.65;;;2.83;;
18867;SDS011;9563;49.240;9.088;2023-06-05T20:05:57;4.88;;;2.42;;
18867;SDS011;9563;49.240;9.088;2023-06-05T20:08:24;3.42;;;2.40;;
18867;SDS011;9563;49.240;9.088;2023-06-05T20:10:51;3.20;;;2.10;;
18867;SDS011;9563;49.240;9.088;2023-06-05T20:13:18;3.35;;;2.33;;
18867;SDS011;9563;49.240;9.088;2023-06-05T20:15:46;5.90;;;2.22;;
18867;SDS011;9563;49.240;9.088;2023-06-05T20:18:14;7.20;;;2.78;;
18867;SDS011;9563;49.240;9.088;2023-06-05T20:20:41;3.95;;;2.42;;